createdAt,value
2022-08-03T00:02:21.237Z,93214.63
2022-08-03T00:04:49.940Z,93205.19
2022-08-03T00:07:19.085Z,93210.88
2022-08-03T00:09:47.624Z,93211.91
2022-08-03T00:12:16.566Z,93209.47
2022-08-03T00:14:44.807Z,93212.03
2022-08-03T00:17:13.635Z,93206.22
2022-08-03T00:19:42.194Z,93207.88
2022-08-03T00:22:10.570Z,93208.47
2022-08-03T00:24:39.338Z,93207.88
2022-08-03T00:27:07.887Z,93214.22
2022-08-03T00:29:57.409Z,93217.09
2022-08-03T00:32:25.352Z,93224.94
2022-08-03T00:34:58.638Z,93230.34
2022-08-03T00:37:41.186Z,93221.19
2022-08-03T00:40:15.092Z,93228.00
2022-08-03T00:43:04.596Z,93217.16
2022-08-03T00:45:38.950Z,93211.47
2022-08-03T00:48:19.595Z,93218.03
2022-08-03T00:50:57.706Z,93231.66
2022-08-03T00:53:27.217Z,93227.78
2022-08-03T00:55:55.926Z,93219.53
2022-08-03T00:58:25.518Z,93222.13
2022-08-03T01:00:54.384Z,93222.97
2022-08-03T01:03:23.027Z,93233.06
2022-08-03T01:05:57.670Z,93223.72
2022-08-03T01:08:54.743Z,93238.59
2022-08-03T01:11:31.086Z,93228.94
2022-08-03T01:14:18.554Z,93230.78
2022-08-03T01:17:00.973Z,93236.56
2022-08-03T01:19:51.677Z,93221.72
2022-08-03T01:22:29.009Z,93232.38
2022-08-03T01:25:25.172Z,93226.69
2022-08-03T01:27:59.954Z,93226.19
2022-08-03T01:30:39.245Z,93212.22
2022-08-03T01:33:34.577Z,93220.81
2022-08-03T01:36:07.131Z,93230.94
2022-08-03T01:38:45.275Z,93225.16
2022-08-03T01:41:21.685Z,93225.22
2022-08-03T01:44:28.686Z,93222.06
2022-08-03T01:46:47.686Z,93219.31
2022-08-03T01:49:19.611Z,93214.84
2022-08-03T01:52:03.654Z,93206.47
2022-08-03T01:54:39.013Z,93208.19
2022-08-03T01:57:08.972Z,93211.31
2022-08-03T01:59:40.249Z,93215.72
2022-08-03T02:02:27.649Z,93208.75
2022-08-03T02:05:02.398Z,93208.25
2022-08-03T02:07:33.497Z,93217.38
2022-08-03T02:10:04.203Z,93214.13
2022-08-03T02:12:34.349Z,93220.16
2022-08-03T02:15:04.662Z,93224.25
2022-08-03T02:17:39.229Z,93218.88
2022-08-03T02:20:11.413Z,93232.22
2022-08-03T02:22:44.728Z,93227.66
2022-08-03T02:25:15.829Z,93227.69
2022-08-03T02:27:58.017Z,93228.19
2022-08-03T02:30:42.849Z,93229.28
2022-08-03T02:33:24.499Z,93220.53
2022-08-03T02:35:54.377Z,93224.28
2022-08-03T02:38:29.767Z,93230.91
2022-08-03T02:41:00.479Z,93233.25
2022-08-03T02:43:57.648Z,93231.50
2022-08-03T02:46:22.596Z,93230.16
2022-08-03T02:48:53.665Z,93232.53
2022-08-03T02:51:23.865Z,93229.75
2022-08-03T02:53:53.710Z,93229.84
2022-08-03T02:56:24.205Z,93226.22
2022-08-03T02:58:54.905Z,93224.09
2022-08-03T03:01:27.114Z,93226.78
2022-08-03T03:03:58.998Z,93227.16
2022-08-03T03:06:30.206Z,93222.63
2022-08-03T03:08:59.869Z,93225.47
2022-08-03T03:11:29.971Z,93235.38
2022-08-03T03:13:59.486Z,93220.75
2022-08-03T03:16:30.907Z,93227.16
2022-08-03T03:19:01.653Z,93223.97
2022-08-03T03:21:32.488Z,93231.78
2022-08-03T03:24:01.482Z,93231.56
2022-08-03T03:26:30.838Z,93218.78
2022-08-03T03:28:59.664Z,93218.78
2022-08-03T03:31:28.542Z,93219.09
2022-08-03T03:34:00.006Z,93220.72
2022-08-03T03:36:29.041Z,93223.66
2022-08-03T03:38:58.627Z,93221.28
2022-08-03T03:41:27.615Z,93213.31
2022-08-03T03:44:02.756Z,93214.13
2022-08-03T03:46:31.642Z,93212.00
2022-08-03T03:49:01.423Z,93209.34
2022-08-03T03:51:30.167Z,93213.09
2022-08-03T03:54:00.433Z,93208.34
2022-08-03T03:56:30.330Z,93210.75
2022-08-03T03:58:59.275Z,93210.91
2022-08-03T04:01:27.879Z,93209.19
2022-08-03T04:03:56.515Z,93211.63
2022-08-03T04:06:43.759Z,93210.88
2022-08-03T04:09:30.869Z,93222.69
2022-08-03T04:12:03.214Z,93214.41
2022-08-03T04:14:36.941Z,93223.22
2022-08-03T04:17:10.858Z,93221.38
2022-08-03T04:19:54.170Z,93230.66
2022-08-03T04:22:25.325Z,93226.97
2022-08-03T04:25:10.800Z,93219.75
2022-08-03T04:27:42.097Z,93220.56
2022-08-03T04:30:11.447Z,93224.03
2022-08-03T04:32:45.722Z,93215.78
2022-08-03T04:35:14.058Z,93208.56
2022-08-03T04:37:49.838Z,93214.16
2022-08-03T04:40:31.785Z,93218.41
2022-08-03T04:43:01.331Z,93216.25
2022-08-03T04:45:31.351Z,93226.13
2022-08-03T04:48:02.997Z,93212.00
2022-08-03T04:50:32.298Z,93213.59
2022-08-03T04:53:01.267Z,93215.50
2022-08-03T04:55:32.076Z,93212.03
2022-08-03T04:58:01.233Z,93209.09
2022-08-03T05:00:30.632Z,93217.38
2022-08-03T05:02:59.120Z,93217.91
2022-08-03T05:05:34.931Z,93218.19
2022-08-03T05:08:16.374Z,93221.16
2022-08-03T05:10:49.364Z,93215.84
2022-08-03T05:13:18.196Z,93225.16
2022-08-03T05:15:47.045Z,93224.34
2022-08-03T05:18:15.591Z,93217.16
2022-08-03T05:20:43.579Z,93212.63
2022-08-03T05:23:12.132Z,93219.56
2022-08-03T05:25:40.875Z,93211.31
2022-08-03T05:28:18.761Z,93207.03
2022-08-03T05:30:47.643Z,93204.13
2022-08-03T05:33:16.366Z,93202.78
2022-08-03T05:36:01.412Z,93199.59
2022-08-03T05:38:34.816Z,93192.13
2022-08-03T05:41:22.507Z,93184.41
2022-08-03T05:43:56.532Z,93184.41
2022-08-03T05:46:25.520Z,93188.66
2022-08-03T05:48:54.447Z,93188.91
2022-08-03T05:51:22.596Z,93191.31
2022-08-03T05:53:50.950Z,93191.84
2022-08-03T05:56:23.138Z,93194.47
2022-08-03T05:58:52.759Z,93193.44
2022-08-03T06:01:23.482Z,93196.91
2022-08-03T06:03:53.356Z,93195.59
2022-08-03T06:06:22.192Z,93199.59
2022-08-03T06:08:51.052Z,93201.72
2022-08-03T06:11:19.695Z,93196.66
2022-08-03T06:13:48.875Z,93203.06
2022-08-03T06:16:17.324Z,93200.91
2022-08-03T06:18:47.373Z,93205.94
2022-08-03T06:21:17.447Z,93203.03
2022-08-03T06:23:54.397Z,93208.38
2022-08-03T06:26:26.244Z,93205.19
2022-08-03T06:28:56.036Z,93208.13
2022-08-03T06:31:32.721Z,93208.09
2022-08-03T06:34:33.905Z,93200.38
2022-08-03T06:36:52.991Z,93212.38
2022-08-03T06:39:23.421Z,93213.44
2022-08-03T06:41:53.120Z,93207.84
2022-08-03T06:44:21.692Z,93204.38
2022-08-03T06:46:50.950Z,93212.09
2022-08-03T06:49:20.136Z,93203.03
2022-08-03T06:52:03.767Z,93207.28
2022-08-03T06:54:35.781Z,93196.38
2022-08-03T06:57:05.028Z,93195.34
2022-08-03T07:00:09.730Z,93200.13
2022-08-03T07:02:22.398Z,93203.84
2022-08-03T07:04:50.919Z,93205.97
2022-08-03T07:07:20.799Z,93205.69
2022-08-03T07:09:56.893Z,93207.81
2022-08-03T07:12:27.637Z,93215.00
2022-08-03T07:15:00.758Z,93205.44
2022-08-03T07:17:32.185Z,93205.97
2022-08-03T07:20:01.966Z,93204.91
2022-08-03T07:22:30.751Z,93205.97
2022-08-03T07:24:59.702Z,93205.69
2022-08-03T07:27:29.813Z,93202.75
2022-08-03T07:29:59.939Z,93203.03
2022-08-03T07:32:29.915Z,93196.41
2022-08-03T07:35:01.158Z,93194.00
2022-08-03T07:37:31.687Z,93196.09
2022-08-03T07:40:01.845Z,93197.72
2022-08-03T07:42:31.792Z,93191.31
2022-08-03T07:45:01.369Z,93189.72
2022-08-03T07:47:35.508Z,93194.19
2022-08-03T07:50:05.171Z,93187.00
2022-08-03T07:52:54.125Z,93189.38
2022-08-03T07:55:24.594Z,93185.91
2022-08-03T07:58:08.825Z,93176.84
2022-08-03T08:00:38.012Z,93169.38
2022-08-03T08:03:06.892Z,93168.31
2022-08-03T08:05:36.121Z,93172.31
2022-08-03T08:08:05.268Z,93164.56
2022-08-03T08:10:34.291Z,93155.22
2022-08-03T08:13:03.572Z,93165.09
2022-08-03T08:15:33.031Z,93163.19
2022-08-03T08:18:03.188Z,93168.81
2022-08-03T08:20:34.981Z,93152.00
2022-08-03T08:23:37.853Z,93146.69
2022-08-03T08:25:57.973Z,93148.28
2022-08-03T08:28:30.280Z,93153.88
2022-08-03T08:31:02.008Z,93159.47
2022-08-03T08:34:02.511Z,93174.13
2022-08-03T08:36:20.008Z,93178.91
2022-08-03T08:38:48.854Z,93180.25
2022-08-03T08:41:17.708Z,93187.97
2022-08-03T08:43:46.262Z,93181.28
2022-08-03T08:46:23.407Z,93185.28
2022-08-03T08:48:54.526Z,93173.00
2022-08-03T08:51:54.889Z,93167.69
2022-08-03T08:54:22.096Z,93161.59
2022-08-03T08:56:55.117Z,93163.22
2022-08-03T08:59:25.825Z,93160.03
2022-08-03T09:01:59.734Z,93152.00
2022-08-03T09:04:32.507Z,93136.56
2022-08-03T09:07:19.255Z,93130.16
2022-08-03T09:10:10.997Z,93143.75
2022-08-03T09:12:46.832Z,93141.09
2022-08-03T09:15:22.890Z,93146.13
2022-08-03T09:17:52.295Z,93140.81
2022-08-03T09:20:22.694Z,93138.41
2022-08-03T09:22:59.513Z,93141.34
2022-08-03T09:25:43.075Z,93148.00
2022-08-03T09:28:14.473Z,93153.06
2022-08-03T09:31:03.050Z,93145.31
2022-08-03T09:33:35.978Z,93141.34
2022-08-03T09:36:04.871Z,93137.06
2022-08-03T09:38:33.473Z,93139.72
2022-08-03T09:41:02.079Z,93147.75
2022-08-03T09:43:46.862Z,93135.47
2022-08-03T09:46:15.438Z,93128.53
2022-08-03T09:48:43.977Z,93122.97
2022-08-03T09:52:29.526Z,93114.97
2022-08-03T09:54:09.568Z,93117.06
2022-08-03T09:56:49.565Z,93107.75
2022-08-03T09:59:32.184Z,93103.75
2022-08-03T10:02:03.123Z,93101.88
2022-08-03T10:04:31.846Z,93092.28
2022-08-03T10:07:19.066Z,93091.47
2022-08-03T10:09:57.238Z,93097.09
2022-08-03T10:12:26.765Z,93094.69
2022-08-03T10:14:57.274Z,93086.41
2022-08-03T10:17:25.930Z,93088.75
2022-08-03T10:19:54.545Z,93089.00
2022-08-03T10:22:33.529Z,93090.84
2022-08-03T10:25:08.364Z,93084.72
2022-08-03T10:27:40.881Z,93079.06
2022-08-03T10:30:11.957Z,93080.69
2022-08-03T10:32:45.097Z,93075.63
2022-08-03T10:35:20.810Z,93070.81
2022-08-03T10:38:11.577Z,93067.63
2022-08-03T10:40:51.043Z,93060.69
2022-08-03T10:43:35.507Z,93062.28
2022-08-03T10:46:07.779Z,93053.44
2022-08-03T10:48:38.134Z,93048.09
2022-08-03T10:51:08.074Z,93048.63
2022-08-03T10:53:39.016Z,93039.03
2022-08-03T10:56:47.270Z,93039.31
2022-08-03T10:59:27.545Z,93043.09
2022-08-03T11:02:00.656Z,93034.25
2022-08-03T11:04:30.882Z,93043.88
2022-08-03T11:07:24.218Z,93028.91
2022-08-03T11:09:57.908Z,93015.59
2022-08-03T11:12:31.081Z,93012.94
2022-08-03T11:15:08.262Z,93010.31
2022-08-03T11:17:46.270Z,93010.03
2022-08-03T11:20:48.409Z,93006.31
2022-08-03T11:23:18.804Z,93014.34
2022-08-03T11:26:11.910Z,93000.19
2022-08-03T11:28:41.265Z,92997.81
2022-08-03T11:34:16.485Z,93011.63
2022-08-03T11:37:24.627Z,92998.25
2022-08-03T11:39:56.710Z,92990.22
2022-08-03T11:42:25.405Z,92994.66
2022-08-03T11:44:56.489Z,93001.84
2022-08-03T11:47:28.265Z,93001.56
2022-08-03T11:50:00.482Z,92991.41
2022-08-03T11:52:35.458Z,92991.13
2022-08-03T11:55:04.467Z,92981.75
2022-08-03T11:59:10.935Z,92981.47
2022-08-03T12:00:32.172Z,92985.44
2022-08-03T12:03:07.418Z,92976.94
2022-08-03T12:05:52.323Z,92974.25
2022-08-03T12:08:29.911Z,92975.63
2022-08-03T12:11:00.507Z,92963.88
2022-08-03T12:14:44.262Z,92972.09
2022-08-03T12:16:27.539Z,92969.66
2022-08-03T12:19:00.018Z,92981.69
2022-08-03T12:21:29.481Z,92983.34
2022-08-03T12:24:01.136Z,92982.53
2022-08-03T12:26:31.432Z,92980.13
2022-08-03T12:28:59.912Z,92968.63
2022-08-03T12:31:28.333Z,92953.94
2022-08-03T12:33:56.813Z,92955.53
2022-08-03T12:36:25.609Z,92954.16
2022-08-03T12:38:59.037Z,92953.66
2022-08-03T12:41:34.777Z,92941.09
2022-08-03T12:44:08.141Z,92940.53
2022-08-03T12:46:47.776Z,92936.47
2022-08-03T12:49:20.899Z,92933.22
2022-08-03T12:51:49.450Z,92927.84
2022-08-03T12:54:24.772Z,92926.75
2022-08-03T12:57:09.301Z,92925.34
2022-08-03T12:59:45.197Z,92918.34
2022-08-03T13:02:27.499Z,92918.34
2022-08-03T13:04:56.600Z,92925.00
2022-08-03T13:07:25.224Z,92924.44
2022-08-03T13:09:55.971Z,92909.25
2022-08-03T13:12:27.125Z,92917.25
2022-08-03T13:15:02.761Z,92915.63
2022-08-03T13:17:30.703Z,92919.81
2022-08-03T13:19:58.750Z,92918.69
2022-08-03T13:22:31.519Z,92916.97
2022-08-03T13:25:00.987Z,92915.88
2022-08-03T13:28:12.330Z,92924.09
2022-08-03T13:30:30.198Z,92930.66
2022-08-03T13:33:00.783Z,92928.50
2022-08-03T13:35:28.908Z,92925.75
2022-08-03T13:37:56.914Z,92917.69
2022-08-03T13:40:30.142Z,92924.03
2022-08-03T13:42:58.759Z,92928.00
2022-08-03T13:45:28.175Z,92936.59
2022-08-03T13:47:58.656Z,92956.34
2022-08-03T13:50:27.632Z,92967.09
2022-08-03T13:52:56.237Z,92979.13
2022-08-03T13:55:25.712Z,92980.00
2022-08-03T13:58:06.049Z,92970.81
2022-08-03T14:00:35.890Z,92965.41
2022-08-03T14:03:12.822Z,92960.63
2022-08-03T14:05:43.462Z,92942.28
2022-08-03T14:08:12.598Z,92942.59
2022-08-03T14:10:44.144Z,92944.88
2022-08-03T14:13:17.849Z,92937.94
2022-08-03T14:15:49.776Z,92935.34
2022-08-03T14:18:29.208Z,92931.13
2022-08-03T14:21:06.617Z,92930.34
2022-08-03T14:23:37.332Z,92930.06
2022-08-03T14:26:07.811Z,92913.97
2022-08-03T14:28:36.978Z,92924.38
2022-08-03T14:31:08.295Z,92920.09
2022-08-03T14:33:43.907Z,92920.31
2022-08-03T14:36:12.578Z,92916.81
2022-08-03T14:38:41.173Z,92911.09
2022-08-03T14:41:12.065Z,92906.50
2022-08-03T14:44:01.222Z,92902.47
2022-08-03T14:46:31.378Z,92914.19
2022-08-03T14:50:28.894Z,92927.19
2022-08-03T14:51:51.525Z,92922.88
2022-08-03T14:54:23.370Z,92929.09
2022-08-03T14:56:52.948Z,92949.84
2022-08-03T14:59:21.550Z,92952.66
2022-08-03T15:02:03.240Z,92948.31
2022-08-03T15:04:35.158Z,92944.41
2022-08-03T15:07:04.131Z,92949.19
2022-08-03T15:09:32.867Z,92936.31
2022-08-03T15:12:01.608Z,92937.91
2022-08-03T15:14:33.459Z,92935.38
2022-08-03T15:17:03.364Z,92924.66
2022-08-03T15:20:03.567Z,92925.69
2022-08-03T15:22:24.985Z,92922.78
2022-08-03T15:26:28.200Z,92927.56
2022-08-03T15:28:04.000Z,92933.19
2022-08-03T15:30:37.265Z,92934.00
2022-08-03T15:33:06.387Z,92933.50
2022-08-03T15:35:35.306Z,92925.25
2022-08-03T15:38:08.757Z,92924.53
2022-08-03T15:40:38.035Z,92914.03
2022-08-03T15:43:06.771Z,92911.09
2022-08-03T15:45:36.309Z,92913.84
2022-08-03T15:48:07.398Z,92903.13
2022-08-03T15:50:36.365Z,92901.03
2022-08-03T15:53:05.419Z,92909.56
2022-08-03T15:55:33.846Z,92909.28
2022-08-03T15:59:04.204Z,92912.31
2022-08-03T16:00:51.876Z,92910.38
2022-08-03T16:03:20.532Z,92895.25
2022-08-03T16:05:49.144Z,92889.97
2022-08-03T16:08:17.874Z,92889.69
2022-08-03T16:10:48.551Z,92884.16
2022-08-03T16:13:19.281Z,92881.03
2022-08-03T16:15:49.290Z,92886.00
2022-08-03T16:18:18.411Z,92886.31
2022-08-03T16:20:47.803Z,92881.53
2022-08-03T16:23:20.081Z,92867.34
2022-08-03T16:25:49.128Z,92875.22
2022-08-03T16:28:19.036Z,92865.50
2022-08-03T16:30:48.887Z,92873.13
2022-08-03T16:33:18.282Z,92878.28
2022-08-03T16:35:48.305Z,92873.63
2022-08-03T16:38:19.392Z,92874.84
2022-08-03T16:40:53.016Z,92873.84
2022-08-03T16:43:23.659Z,92866.91
2022-08-03T16:45:53.234Z,92860.66
2022-08-03T16:48:21.971Z,92848.94
2022-08-03T16:50:50.652Z,92847.34
2022-08-03T16:53:33.657Z,92851.59
2022-08-03T16:56:10.548Z,92843.25
2022-08-03T16:58:42.154Z,92831.72
2022-08-03T17:01:21.445Z,92832.97
2022-08-03T17:04:04.739Z,92828.38
2022-08-03T17:06:44.647Z,92831.13
2022-08-03T17:09:20.601Z,92832.63
2022-08-03T17:11:52.049Z,92820.56
2022-08-03T17:14:29.254Z,92824.16
2022-08-03T17:17:02.339Z,92814.66
2022-08-03T17:19:33.553Z,92817.25
2022-08-03T17:22:05.723Z,92818.06
2022-08-03T17:24:35.686Z,92816.06
2022-08-03T17:28:41.690Z,92813.66
2022-08-03T17:30:12.006Z,92817.75
2022-08-03T17:32:56.665Z,92821.28
2022-08-03T17:35:36.535Z,92811.84
2022-08-03T17:38:11.925Z,92808.06
2022-08-03T17:40:50.045Z,92807.47
2022-08-03T17:44:13.313Z,92802.34
2022-08-03T17:46:10.858Z,92810.44
2022-08-03T17:48:41.405Z,92799.00
2022-08-03T17:51:46.265Z,92810.41
2022-08-03T17:54:27.060Z,92801.63
2022-08-03T17:57:22.573Z,92814.13
2022-08-03T18:00:28.420Z,92817.09
2022-08-03T18:03:20.666Z,92838.88
2022-08-03T18:06:11.789Z,92853.13
2022-08-03T18:08:48.142Z,92865.00
2022-08-03T18:11:24.143Z,92864.25
2022-08-03T18:14:26.934Z,92864.56
2022-08-03T18:17:02.802Z,92866.28
2022-08-03T18:20:01.438Z,92859.47
2022-08-03T18:22:30.529Z,92863.16
2022-08-03T18:25:01.518Z,92857.25
2022-08-03T18:27:45.475Z,92855.53
2022-08-03T18:30:16.621Z,92864.09
2022-08-03T18:33:01.032Z,92865.19
2022-08-03T18:35:53.882Z,92871.69
2022-08-03T18:38:19.122Z,92871.84
2022-08-03T18:40:50.157Z,92877.84
2022-08-03T18:43:21.765Z,92877.69
2022-08-03T18:46:22.579Z,92885.28
2022-08-03T18:49:11.297Z,92887.19
2022-08-03T18:51:43.297Z,92898.47
2022-08-03T18:54:45.536Z,92898.63
2022-08-03T18:57:30.340Z,92894.34
2022-08-03T19:00:14.010Z,92891.78
2022-08-03T19:02:50.802Z,92897.47
2022-08-03T19:05:24.611Z,92894.78
2022-08-03T19:08:38.511Z,92905.91
2022-08-03T19:11:11.632Z,92903.22
2022-08-03T19:13:50.771Z,92904.00
2022-08-03T19:16:34.352Z,92896.88
2022-08-03T19:19:03.963Z,92900.19
2022-08-03T19:21:36.505Z,92897.16
2022-08-03T19:24:10.350Z,92909.97
2022-08-03T19:26:40.963Z,92903.47
2022-08-03T19:29:14.999Z,92909.59
2022-08-03T19:31:58.692Z,92903.97
2022-08-03T19:34:31.117Z,92888.00
2022-08-03T19:37:00.273Z,92895.09
2022-08-03T19:39:28.969Z,92888.72
2022-08-03T19:42:20.146Z,92878.63
2022-08-03T19:44:56.741Z,92882.69
2022-08-03T19:48:09.692Z,92882.13
2022-08-03T19:50:44.657Z,92872.69
2022-08-03T19:53:14.816Z,92877.00
2022-08-03T19:55:47.568Z,92876.69
2022-08-03T19:58:28.569Z,92865.97
2022-08-03T20:00:57.971Z,92874.00
2022-08-03T20:03:42.935Z,92875.16
2022-08-03T20:06:17.034Z,92882.28
2022-08-03T20:08:45.816Z,92886.25
2022-08-03T20:11:20.180Z,92878.91
2022-08-03T20:13:59.474Z,92878.97
2022-08-03T20:16:28.357Z,92883.47
2022-08-03T20:18:57.393Z,92881.06
2022-08-03T20:21:31.409Z,92879.38
2022-08-03T20:24:23.687Z,92879.84
2022-08-03T20:26:55.206Z,92868.31
2022-08-03T20:30:07.125Z,92877.91
2022-08-03T20:32:37.019Z,92879.75
2022-08-03T20:35:09.975Z,92879.13
2022-08-03T20:37:40.736Z,92878.78
2022-08-03T20:40:10.985Z,92885.44
2022-08-03T20:42:39.977Z,92879.13
2022-08-03T20:45:15.207Z,92881.81
2022-08-03T20:47:58.517Z,92885.91
2022-08-03T20:50:28.307Z,92890.19
2022-08-03T20:52:57.232Z,92886.47
2022-08-03T20:55:48.146Z,92886.91
2022-08-03T20:58:15.197Z,92889.66
2022-08-03T21:00:44.085Z,92889.19
2022-08-03T21:03:12.768Z,92895.53
2022-08-03T21:05:51.775Z,92898.63
2022-08-03T21:08:24.208Z,92901.94
2022-08-03T21:10:54.730Z,92900.63
2022-08-03T21:14:03.721Z,92911.03
2022-08-03T21:16:38.695Z,92913.25
2022-08-03T21:19:07.421Z,92907.94
2022-08-03T21:21:39.843Z,92910.97
2022-08-03T21:24:12.825Z,92913.81
2022-08-03T21:26:42.452Z,92925.66
2022-08-03T21:29:15.758Z,92920.00
2022-08-03T21:31:45.197Z,92926.94
2022-08-03T21:34:13.972Z,92917.13
2022-08-03T21:36:43.307Z,92912.41
2022-08-03T21:39:13.034Z,92914.13
2022-08-03T21:41:42.513Z,92916.03
2022-08-03T21:44:11.144Z,92913.50
2022-08-03T21:46:42.794Z,92912.38
2022-08-03T21:50:07.378Z,92912.38
2022-08-03T21:52:07.277Z,92905.41
2022-08-03T21:54:42.710Z,92904.63
2022-08-03T21:57:19.890Z,92912.38
2022-08-03T21:59:55.662Z,92903.22
2022-08-03T22:02:31.328Z,92896.41
2022-08-03T22:05:04.838Z,92901.16
2022-08-03T22:07:35.629Z,92897.50
2022-08-03T22:10:07.040Z,92888.00
2022-08-03T22:12:36.431Z,92885.00
2022-08-03T22:15:09.428Z,92881.34
2022-08-03T22:17:54.553Z,92878.97
2022-08-03T22:20:26.558Z,92882.47
2022-08-03T22:22:58.022Z,92875.34
2022-08-03T22:25:29.707Z,92872.78
2022-08-03T22:28:01.550Z,92875.97
2022-08-03T22:30:30.852Z,92880.41
2022-08-03T22:33:00.944Z,92878.50
2022-08-03T22:35:30.485Z,92876.09
2022-08-03T22:37:59.723Z,92872.28
2022-08-03T22:40:29.424Z,92878.00
2022-08-03T22:42:58.320Z,92878.94
2022-08-03T22:46:08.835Z,92874.81
2022-08-03T22:48:19.149Z,92868.13
2022-08-03T22:50:48.024Z,92868.69
2022-08-03T22:53:21.975Z,92871.66
2022-08-03T22:55:51.607Z,92870.16
2022-08-03T22:58:24.332Z,92869.81
2022-08-03T23:01:06.734Z,92876.00
2022-08-03T23:04:00.228Z,92875.06
2022-08-03T23:06:28.846Z,92882.13
2022-08-03T23:08:57.544Z,92867.84
2022-08-03T23:11:27.239Z,92867.66
2022-08-03T23:14:00.333Z,92867.91
2022-08-03T23:16:33.903Z,92861.34
2022-08-03T23:19:16.583Z,92855.53
2022-08-03T23:21:53.380Z,92858.50
2022-08-03T23:24:30.831Z,92849.50
2022-08-03T23:27:00.396Z,92841.94
2022-08-03T23:29:31.378Z,92842.72
2022-08-03T23:32:02.572Z,92843.06
2022-08-03T23:34:51.651Z,92846.13
2022-08-03T23:37:21.662Z,92844.81
2022-08-03T23:39:51.027Z,92847.38
2022-08-03T23:42:21.753Z,92844.47
2022-08-03T23:44:55.619Z,92842.97
2022-08-03T23:47:24.651Z,92842.56
2022-08-03T23:50:13.966Z,92848.75
2022-08-03T23:53:14.985Z,92850.00
2022-08-03T23:55:52.433Z,92853.81
2022-08-03T23:58:21.078Z,92849.16
